Time;durP1;ratioP1;P1;durP2;ratioP2;P2;SDS_P1;SDS_P2;PMS_P1;PMS_P2;Temp;Humidity;BMP_temperature;BMP_pressure;BME280_temperature;BME280_humidity;BME280_pressure;Samples;Min_cycle;Max_cycle;Signal;HPM_P1;HPM_P2
2022/01/03 00:25:29;;;;;;;20.43;10.40;;;;;;;9.97;nan;102563.50;6098220;23;20363;-87
2022/01/03 06:02:56;;;;;;;5.77;2.00;;;;;;;8.39;nan;102403.69;6123328;23;20809;-87
2022/01/03 09:40:31;;;;;;;8.57;3.97;;;;;;;10.62;nan;102477.03;6126074;23;20405;-87
2022/01/03 09:42:59;;;;;;;6.00;3.73;;;;;;;10.75;nan;102472.06;6100880;23;20493;-87
2022/01/03 09:45:33;;;;;;;12.47;4.60;;;;;;;10.89;nan;102471.56;6100377;23;20414;-87
2022/01/03 09:48:03;;;;;;;11.70;3.53;;;;;;;11.00;nan;102482.25;6102375;23;20481;-88
2022/01/03 09:50:35;;;;;;;12.27;3.17;;;;;;;11.10;nan;102470.41;6076849;23;20743;-90
2022/01/03 09:53:04;;;;;;;7.10;3.30;;;;;;;11.28;nan;102483.09;6101003;23;20489;-87
2022/01/03 09:55:32;;;;;;;10.50;3.40;;;;;;;11.45;nan;102475.88;6076931;23;20446;-87
2022/01/03 09:58:01;;;;;;;14.43;3.37;;;;;;;11.62;nan;102476.88;6077466;23;20533;-88
2022/01/03 10:00:30;;;;;;;9.20;3.80;;;;;;;11.75;nan;102475.44;6100183;23;20418;-87
2022/01/03 10:02:58;;;;;;;12.00;3.40;;;;;;;11.90;nan;102477.69;6100693;23;20566;-89
2022/01/03 10:05:26;;;;;;;7.80;3.20;;;;;;;12.09;nan;102477.47;6052802;23;20414;-88
2022/01/03 10:07:55;;;;;;;10.87;3.53;;;;;;;12.27;nan;102475.53;6101078;23;20856;-89
2022/01/03 10:10:27;;;;;;;9.57;3.57;;;;;;;12.47;nan;102480.78;6076741;23;20418;-88
2022/01/03 10:12:55;;;;;;;10.90;4.97;;;;;;;12.61;nan;102480.13;6100269;23;20494;-92
2022/01/03 10:15:32;;;;;;;11.10;4.50;;;;;;;12.78;nan;102488.28;6080822;23;20562;-90
2022/01/03 10:18:05;;;;;;;6.60;3.60;;;;;;;12.95;nan;102483.69;6077847;23;20395;-91
2022/01/03 10:28:59;;;;;;;8.03;2.90;;;;;;;13.72;nan;102479.72;6124944;23;20358;-90
2022/01/03 10:32:44;;;;;;;13.63;3.97;;;;;;;13.97;nan;102477.81;6075407;23;20451;-89
2022/01/03 11:12:07;;;;;;;8.63;2.17;;;;;;;15.96;nan;102460.81;5770267;24;20435;-90
2022/01/03 11:14:43;;;;;;;9.07;2.20;;;;;;;16.16;nan;102464.75;5769243;24;20875;-88
2022/01/03 11:17:30;;;;;;;10.93;3.03;;;;;;;16.25;nan;102455.31;5798173;24;20460;-89
2022/01/03 11:20:13;;;;;;;8.90;2.60;;;;;;;16.44;nan;102460.28;5818062;24;20419;-89
2022/01/03 11:22:54;;;;;;;8.50;2.00;;;;;;;16.51;nan;102458.47;5854892;24;20449;-90
2022/01/03 11:29:30;;;;;;;11.53;2.10;;;;;;;16.81;nan;102450.16;5871707;24;20462;-90
2022/01/03 12:21:24;;;;;;;16.13;4.27;;;;;;;18.36;nan;102388.41;6127245;23;20429;-86
2022/01/03 12:32:02;;;;;;;10.50;4.90;;;;;;;18.54;nan;102385.94;6051178;23;20408;-88
2022/01/03 12:34:31;;;;;;;8.07;4.80;;;;;;;18.56;nan;102374.66;6037429;23;20574;-86
2022/01/03 12:37:19;;;;;;;14.83;7.27;;;;;;;18.66;nan;102377.09;6037409;23;20580;-85
2022/01/03 12:40:02;;;;;;;14.93;4.67;;;;;;;18.73;nan;102367.72;6037550;23;20496;-87
2022/01/03 12:42:49;;;;;;;7.67;4.10;;;;;;;18.79;nan;102361.38;6037677;23;20528;-90
2022/01/03 12:45:29;;;;;;;8.10;3.87;;;;;;;18.86;nan;102361.38;6038299;23;20602;-88
2022/01/03 12:48:11;;;;;;;9.30;3.90;;;;;;;18.89;nan;102358.19;6038106;23;20462;-88
2022/01/03 12:50:55;;;;;;;9.53;3.83;;;;;;;18.92;nan;102358.63;6038093;23;20488;-88
2022/01/03 12:53:31;;;;;;;12.73;5.23;;;;;;;18.97;nan;102356.09;6037258;23;20530;-87
2022/01/03 12:56:09;;;;;;;12.80;4.07;;;;;;;19.03;nan;102350.78;6037601;23;20516;-86
2022/01/03 12:58:38;;;;;;;15.03;6.77;;;;;;;19.12;nan;102353.13;5991591;23;20397;-87
2022/01/03 13:01:12;;;;;;;21.30;10.50;;;;;;;19.18;nan;102341.19;6013818;23;20952;-88
2022/01/03 13:03:53;;;;;;;14.20;5.50;;;;;;;19.18;nan;102343.97;6036768;23;20496;-87
2022/01/03 13:06:32;;;;;;;13.33;4.90;;;;;;;19.17;nan;102333.09;6120171;23;20406;-87
2022/01/03 13:09:11;;;;;;;17.03;8.23;;;;;;;19.15;nan;102332.44;6077341;23;20446;-89
2022/01/03 13:11:50;;;;;;;11.93;6.40;;;;;;;19.09;nan;102328.59;6101733;23;20453;-87
2022/01/03 13:14:20;;;;;;;25.20;10.10;;;;;;;19.12;nan;102330.94;6124318;23;20729;-87
2022/01/03 13:16:49;;;;;;;12.57;6.80;;;;;;;19.09;nan;102320.28;6077048;23;20781;-87
2022/01/03 13:19:25;;;;;;;17.60;5.67;;;;;;;19.12;nan;102314.31;6076979;23;20418;-87
2022/01/03 13:22:00;;;;;;;16.70;7.87;;;;;;;19.17;nan;102308.13;6079161;23;20477;-87
2022/01/03 13:24:59;;;;;;;17.60;6.90;;;;;;;19.22;nan;102305.59;6126111;23;20421;-87
2022/01/03 13:27:27;;;;;;;45.30;19.00;;;;;;;19.26;nan;102304.94;6101153;23;20778;-87
2022/01/03 13:30:03;;;;;;;20.10;9.60;;;;;;;19.37;nan;102294.28;6077175;23;20917;-86
2022/01/03 13:32:31;;;;;;;16.40;6.23;;;;;;;19.43;nan;102291.50;6101958;23;20493;-87
2022/01/03 13:35:00;;;;;;;15.93;7.13;;;;;;;19.52;nan;102286.59;6076799;23;20473;-87
2022/01/03 13:37:29;;;;;;;17.17;7.10;;;;;;;19.59;nan;102293.88;6076885;23;20446;-89
2022/01/03 13:40:00;;;;;;;43.93;18.57;;;;;;;19.63;nan;102280.38;6099062;23;20418;-86
2022/01/03 13:42:39;;;;;;;14.63;6.30;;;;;;;19.67;nan;102287.22;6112924;23;20437;-87
2022/01/03 13:50:56;;;;;;;14.60;7.17;;;;;;;19.80;nan;102281.66;6155914;23;20488;-87
2022/01/03 13:53:25;;;;;;;16.97;7.70;;;;;;;19.84;nan;102274.56;6153545;23;20434;-88
2022/01/03 13:55:55;;;;;;;16.70;8.07;;;;;;;19.91;nan;102278.19;6155845;23;20448;-87
2022/01/03 13:58:25;;;;;;;12.57;5.80;;;;;;;19.87;nan;102260.28;6083132;23;20496;-87
2022/01/03 14:00:59;;;;;;;16.37;7.17;;;;;;;19.99;nan;102274.34;6106177;23;21455;-87
2022/01/03 14:03:28;;;;;;;23.10;9.87;;;;;;;20.02;nan;102276.66;6107442;23;20748;-87
2022/01/03 14:06:16;;;;;;;20.27;9.30;;;;;;;20.03;nan;102261.69;6129545;23;20408;-87
2022/01/03 14:08:46;;;;;;;14.37;5.60;;;;;;;20.06;nan;102265.97;6130505;23;20405;-89
2022/01/03 14:11:15;;;;;;;8.93;4.23;;;;;;;20.09;nan;102265.53;6106091;23;20421;-90
2022/01/03 14:59:13;;;;;;;23.57;10.23;;;;;;;20.51;nan;102214.09;6125773;23;20367;-87
2022/01/03 18:02:37;;;;;;;23.77;8.13;;;;;;;14.21;nan;102185.44;6126898;23;20402;-91
2022/01/03 19:38:10;;;;;;;16.50;9.37;;;;;;;12.39;nan;102202.75;6096699;23;20430;-89
2022/01/03 20:47:56;;;;;;;13.63;6.57;;;;;;;11.15;nan;102145.19;6145474;23;20453;-90
2022/01/03 20:50:24;;;;;;;8.90;5.57;;;;;;;11.18;nan;102163.97;6078179;23;20820;-90
2022/01/03 20:52:52;;;;;;;10.00;6.00;;;;;;;11.22;nan;102177.19;6054598;23;20736;-90
2022/01/03 20:56:10;;;;;;;11.43;6.23;;;;;;;11.19;nan;102169.28;6085355;23;20417;-90
2022/01/03 20:58:38;;;;;;;11.77;7.00;;;;;;;11.04;nan;102159.97;6077809;23;20416;-91
2022/01/03 21:01:06;;;;;;;14.00;7.00;;;;;;;11.03;nan;102164.59;6079174;23;20418;-90
2022/01/03 21:03:35;;;;;;;13.40;9.67;;;;;;;11.10;nan;102169.44;6078694;23;20406;-90
2022/01/03 21:06:03;;;;;;;18.20;7.57;;;;;;;11.07;nan;102165.13;6078203;23;20418;-90
2022/01/03 21:08:32;;;;;;;10.47;5.97;;;;;;;11.10;nan;102167.56;6078035;23;20912;-89
2022/01/03 21:22:50;;;;;;;9.20;5.03;;;;;;;11.39;nan;102164.44;6127379;23;20442;-93
2022/01/03 21:26:14;;;;;;;9.10;4.83;;;;;;;11.45;nan;102162.94;6126826;23;20492;-84
2022/01/03 21:29:03;;;;;;;14.20;5.60;;;;;;;11.38;nan;102146.28;6104291;23;20418;-89
2022/01/03 21:31:34;;;;;;;15.63;6.40;;;;;;;11.47;nan;102150.78;6101487;23;20414;-89
2022/01/03 21:37:49;;;;;;;11.93;4.27;;;;;;;11.51;nan;102162.28;6126253;23;20437;-88
2022/01/03 21:40:19;;;;;;;9.67;3.77;;;;;;;11.46;nan;102154.56;6078003;23;20833;-88
2022/01/03 21:42:50;;;;;;;8.47;4.60;;;;;;;11.49;nan;102153.38;6078287;23;20931;-88
2022/01/03 21:45:23;;;;;;;11.97;5.03;;;;;;;11.46;nan;102131.78;6077162;23;20410;-88
2022/01/03 21:47:53;;;;;;;11.23;5.00;;;;;;;11.43;nan;102132.97;6102256;23;20413;-88
2022/01/03 21:50:22;;;;;;;13.60;5.57;;;;;;;11.48;nan;102141.56;6126826;23;20406;-88
2022/01/03 21:53:07;;;;;;;16.93;6.23;;;;;;;11.47;nan;102139.84;6054184;23;20481;-89
2022/01/03 21:55:55;;;;;;;25.40;8.03;;;;;;;11.38;nan;102119.78;6017997;23;20520;-88
2022/01/03 21:58:23;;;;;;;30.10;8.50;;;;;;;11.45;nan;102130.94;5967984;23;20444;-89
2022/01/03 22:00:54;;;;;;;14.30;6.10;;;;;;;11.54;nan;102145.53;5969542;23;20453;-88
2022/01/03 22:03:27;;;;;;;22.70;5.73;;;;;;;11.42;nan;102112.09;6037291;23;20417;-89
2022/01/03 22:06:00;;;;;;;17.57;7.13;;;;;;;11.51;nan;102123.94;6014399;23;20739;-88
2022/01/03 22:08:29;;;;;;;32.80;11.00;;;;;;;11.46;nan;102121.69;5968072;23;20488;-89
2022/01/03 22:11:03;;;;;;;34.63;11.40;;;;;;;11.47;nan;102114.34;5990512;23;20425;-89
2022/01/03 22:13:34;;;;;;;17.33;7.83;;;;;;;11.46;nan;102107.16;5967613;23;20417;-89
2022/01/03 22:16:10;;;;;;;17.47;6.43;;;;;;;11.49;nan;102104.94;5992489;23;20417;-88
2022/01/03 22:18:38;;;;;;;22.07;7.30;;;;;;;11.48;nan;102103.22;5990645;23;20505;-89
2022/01/03 22:21:13;;;;;;;20.77;7.50;;;;;;;11.47;nan;102087.81;5967298;23;20458;-88
2022/01/03 22:23:47;;;;;;;24.77;8.50;;;;;;;11.47;nan;102089.72;5992176;23;20462;-88
2022/01/03 22:26:23;;;;;;;25.10;8.17;;;;;;;11.50;nan;102098.44;6004085;23;20399;-88
2022/01/03 22:28:59;;;;;;;30.40;9.23;;;;;;;11.49;nan;102088.53;6055602;23;20739;-88
2022/01/03 22:31:33;;;;;;;31.90;9.17;;;;;;;11.49;nan;102091.25;6056202;23;20418;-89
2022/01/03 22:34:09;;;;;;;26.60;8.27;;;;;;;11.48;nan;102078.59;6054779;23;20398;-88
2022/01/03 22:36:48;;;;;;;18.50;7.43;;;;;;;11.57;nan;102096.75;6055260;23;20885;-87
2022/01/03 22:39:16;;;;;;;19.70;7.47;;;;;;;11.55;nan;102092.44;6091475;23;20437;-88
2022/01/03 22:41:45;;;;;;;24.70;8.00;;;;;;;11.54;nan;102083.41;6076546;23;20489;-89
2022/01/03 22:44:12;;;;;;;33.83;9.57;;;;;;;11.52;nan;102074.50;6077310;23;20413;-88
2022/01/03 22:46:40;;;;;;;20.20;7.00;;;;;;;11.50;nan;102072.94;6076694;23;20403;-88
2022/01/03 22:49:09;;;;;;;22.80;6.80;;;;;;;11.52;nan;102063.56;6077100;23;20799;-88
2022/01/03 22:51:37;;;;;;;30.93;8.07;;;;;;;11.62;nan;102075.19;6100485;23;20489;-88
2022/01/03 22:54:05;;;;;;;36.50;11.80;;;;;;;11.54;nan;102050.56;6100573;23;20394;-89
2022/01/03 22:56:33;;;;;;;42.17;14.67;;;;;;;11.60;nan;102065.44;6077407;23;20481;-88
2022/01/03 22:59:01;;;;;;;31.03;12.33;;;;;;;11.58;nan;102068.34;6100598;23;20497;-88
2022/01/03 23:01:29;;;;;;;34.07;12.30;;;;;;;11.63;nan;102065.09;6077161;23;20413;-88
2022/01/03 23:03:57;;;;;;;30.20;10.70;;;;;;;11.64;nan;102064.06;6076983;23;20917;-88
2022/01/03 23:06:26;;;;;;;26.90;9.23;;;;;;;11.62;nan;102052.44;6100381;23;20743;-88
2022/01/03 23:08:54;;;;;;;27.53;11.10;;;;;;;11.59;nan;102048.13;6076993;23;20406;-88
2022/01/03 23:11:22;;;;;;;23.77;9.93;;;;;;;11.57;nan;102041.97;6078362;23;20477;-89
2022/01/03 23:13:50;;;;;;;27.97;10.63;;;;;;;11.65;nan;102052.94;6077531;23;20405;-88
2022/01/03 23:16:18;;;;;;;24.83;11.10;;;;;;;11.57;nan;102031.03;6100645;23;20542;-88
2022/01/03 23:18:46;;;;;;;33.57;11.20;;;;;;;11.57;nan;102044.72;6076814;23;20443;-88
2022/01/03 23:21:15;;;;;;;30.00;13.10;;;;;;;11.61;nan;102048.84;6099777;23;20485;-88
2022/01/03 23:23:43;;;;;;;40.80;17.90;;;;;;;11.55;nan;102034.94;6100536;23;20406;-88
2022/01/03 23:26:10;;;;;;;46.40;19.37;;;;;;;11.56;nan;102032.03;6077176;23;20410;-88
2022/01/03 23:28:38;;;;;;;31.27;17.13;;;;;;;11.59;nan;102041.81;6100294;23;20418;-88
2022/01/03 23:31:05;;;;;;;38.57;18.57;;;;;;;11.60;nan;102035.31;6124356;23;20410;-88
2022/01/03 23:33:33;;;;;;;37.83;16.00;;;;;;;11.63;nan;102034.97;6125849;23;20418;-89
2022/01/03 23:36:02;;;;;;;33.23;15.40;;;;;;;11.62;nan;102036.84;6076802;23;20553;-88
2022/01/03 23:38:30;;;;;;;34.00;15.10;;;;;;;11.61;nan;102031.53;6080927;23;20925;-88
2022/01/03 23:40:57;;;;;;;28.10;12.33;;;;;;;11.55;nan;102016.63;6126303;23;20885;-87
2022/01/03 23:43:26;;;;;;;31.10;12.57;;;;;;;11.66;nan;102021.81;6100591;23;20483;-88
2022/01/03 23:45:54;;;;;;;25.93;12.30;;;;;;;11.54;nan;102001.25;6124591;23;20415;-88
2022/01/03 23:48:27;;;;;;;30.13;13.40;;;;;;;11.56;nan;102007.41;6100413;23;20733;-88
2022/01/03 23:50:55;;;;;;;37.83;13.80;;;;;;;11.59;nan;102007.06;6102903;23;20541;-88
2022/01/03 23:53:23;;;;;;;37.40;14.50;;;;;;;11.65;nan;102002.81;6100915;23;20413;-89
2022/01/03 23:55:51;;;;;;;31.97;14.93;;;;;;;11.62;nan;101989.44;6077157;23;20485;-89
2022/01/03 23:58:20;;;;;;;37.80;16.10;;;;;;;11.61;nan;101988.59;6100970;23;20448;-88
